EDT,Max TemperatureF,Mean TemperatureF,Min TemperatureF,Max Dew PointF,MeanDew PointF,Min DewpointF,Max Humidity, Mean Humidity, Min Humidity, Max Sea Level PressureIn, Mean Sea Level PressureIn, Min Sea Level PressureIn, Max VisibilityMiles, Mean VisibilityMiles, Min VisibilityMiles, Max Wind SpeedMPH, Mean Wind SpeedMPH, Max Gust SpeedMPH,PrecipitationIn, CloudCover, Events, WindDirDegrees
2012-9-1,87,82,77,79,75,72,94,79,58,30.07,30.04,29.99,10,9,4,9,5,,0.00,0,,272
2012-9-2,84,80,75,77,73,70,94,82,70,30.05,30.02,29.98,10,9,2,9,3,16,0.00,1,,105
2012-9-3,86,80,73,77,74,72,94,86,66,30.07,30.04,30.02,10,8,2,7,2,,0.01,2,,167
2012-9-4,87,80,73,77,74,70,94,81,55,30.04,29.99,29.93,10,8,3,13,4,17,0.00,1,,194
2012-9-5,87,81,75,75,73,72,89,76,62,29.94,29.88,29.82,10,10,10,18,9,25,0.00,1,,216
2012-9-6,84,75,66,75,70,64,94,82,70,30.00,29.90,29.86,10,9,3,16,6,29,0.29,3,,204
2012-9-7,84,74,64,73,69,63,100,83,58,29.98,29.94,29.87,10,8,2,8,3,,0.00,1,,125
2012-9-8,87,78,69,75,72,64,94,78,58,29.88,29.78,29.67,10,9,5,18,8,29,0.21,3,,208
2012-9-9,77,70,62,64,61,54,94,76,44,29.92,29.86,29.80,10,10,7,12,4,18,0.01,2,,350
2012-9-10,75,67,59,63,54,48,94,63,38,30.17,30.03,29.92,10,10,7,16,6,25,0.00,0,,351
2012-9-11,73,63,53,55,51,46,94,67,38,30.32,30.26,30.17,10,10,10,12,5,17,0.00,0,,17
2012-9-12,77,64,51,61,54,50,94,74,41,30.39,30.35,30.31,10,10,4,7,2,,0.00,0,,109
2012-9-13,78,66,53,66,61,52,100,83,61,30.38,30.33,30.29,10,9,2,7,2,,0.00,2,,72
2012-9-14,80,68,57,68,62,57,100,79,51,30.29,30.22,30.14,10,9,3,7,1,,0.00,1,,131
2012-9-15,75,65,55,66,57,48,94,72,38,30.17,30.13,30.09,10,10,5,16,6,28,0.00,0,,322
2012-9-16,73,62,51,64,57,52,100,79,47,30.18,30.14,30.10,10,10,7,6,1,,0.00,0,,240
2012-9-17,77,68,60,70,63,57,94,77,57,30.14,30.09,30.02,10,10,7,8,2,,0.00,5,,164
2012-9-18,82,76,71,73,71,68,94,83,70,30.01,29.84,29.73,10,9,3,22,11,34,0.40,2,,182
2012-9-19,73,65,57,70,58,52,94,73,47,30.15,30.02,29.83,10,10,5,12,6,22,0.01,3,,349
2012-9-20,75,64,53,61,55,50,100,73,47,30.17,30.12,30.08,10,10,7,9,4,,0.00,0,,13
2012-9-21,78,66,53,64,58,52,100,79,44,30.10,30.06,30.01,10,9,5,6,2,,0.00,0,,96
2012-9-22,82,74,66,70,66,63,94,77,54,30.01,29.94,29.86,10,10,10,18,8,26,0.00,0,,198
2012-9-23,75,63,51,66,51,43,88,59,38,30.15,30.06,29.90,10,10,7,15,8,23,0.02,2,,347
2012-9-24,69,58,46,50,44,37,93,66,31,30.22,30.18,30.14,10,10,10,13,3,18,0.00,0,,5
2012-9-25,75,62,48,59,51,45,93,66,38,30.26,30.22,30.16,10,10,10,14,6,17,0.00,0,,181
2012-9-26,80,72,64,66,62,57,94,70,50,30.20,30.17,30.13,10,10,10,15,8,22,0.00,0,,205
2012-9-27,82,72,62,66,64,61,94,78,54,30.20,30.14,30.10,10,9,0,8,3,,0.00,0,,164
2012-9-28,84,73,62,72,65,61,94,79,48,30.11,30.03,29.96,10,6,0,12,4,17,0.08,2,Rain-Thunderstorm,213
2012-9-29,68,64,60,64,58,55,94,79,64,30.00,29.96,29.92,10,10,4,12,4,,0.00,6,Rain,326
2012-9-30,73,64,55,57,53,45,94,72,36,29.92,29.89,29.85,10,10,4,12,2,,0.00,1,,230